Time;durP1;ratioP1;P1;durP2;ratioP2;P2;SDS_P1;SDS_P2;PMS_P1;PMS_P2;Temp;Humidity;BMP_temperature;BMP_pressure;BME280_temperature;BME280_humidity;BME280_pressure;Samples;Min_cycle;Max_cycle;Signal;HPM_P1;HPM_P2
2022/10/26 00:00:30;;;;;;;2.63;0.95;;;;;;;13.97;81.08;99171.31;5039316;28;20151;-55
2022/10/26 00:02:57;;;;;;;4.43;1.92;;;;;;;14.01;80.34;99173.78;5037953;28;20135;-54
2022/10/26 00:05:23;;;;;;;4.50;1.65;;;;;;;14.03;80.19;99171.13;5042001;28;20128;-50
2022/10/26 00:07:50;;;;;;;4.35;1.55;;;;;;;13.98;80.84;99167.78;5040215;28;20147;-55
2022/10/26 00:10:20;;;;;;;4.10;1.60;;;;;;;14.07;80.24;99162.31;5041565;28;20148;-52
2022/10/26 00:12:49;;;;;;;4.85;1.65;;;;;;;14.01;81.09;99167.69;5039857;28;20076;-54
2022/10/26 00:15:18;;;;;;;3.83;1.50;;;;;;;14.04;80.84;99162.41;5043500;28;20048;-56
2022/10/26 00:17:46;;;;;;;4.15;1.08;;;;;;;14.09;79.67;99159.66;5037491;28;20080;-57
2022/10/26 00:20:13;;;;;;;4.20;1.40;;;;;;;14.08;80.07;99153.59;5044192;28;20076;-54
2022/10/26 00:22:40;;;;;;;8.02;1.48;;;;;;;14.13;80.30;99162.13;5041682;28;20048;-49
2022/10/26 00:25:07;;;;;;;5.40;1.77;;;;;;;14.13;79.98;99158.66;5048403;28;20056;-53
2022/10/26 00:27:34;;;;;;;6.40;1.67;;;;;;;14.17;79.45;99152.47;5047107;28;20072;-55
2022/10/26 00:30:03;;;;;;;10.70;1.70;;;;;;;14.19;79.65;99149.81;5042372;28;20141;-50
2022/10/26 00:32:30;;;;;;;6.07;1.60;;;;;;;14.22;79.66;99160.13;5050857;28;20079;-50
2022/10/26 00:34:57;;;;;;;7.00;2.20;;;;;;;14.18;79.79;99153.31;5057005;28;20452;-48
2022/10/26 00:37:41;;;;;;;4.97;1.10;;;;;;;14.18;79.64;99150.72;5040111;28;20569;-56
2022/10/26 00:40:08;;;;;;;3.80;1.40;;;;;;;14.16;79.66;99139.47;5047940;28;20049;-53
2022/10/26 00:42:34;;;;;;;5.50;1.90;;;;;;;14.11;80.22;99143.09;5058583;28;20514;-54
2022/10/26 00:45:21;;;;;;;6.38;1.23;;;;;;;14.14;79.91;99153.41;5048544;28;20179;-52
2022/10/26 00:47:52;;;;;;;16.02;2.13;;;;;;;14.16;80.29;99148.16;5050783;28;20050;-52
2022/10/26 00:50:28;;;;;;;3.97;1.42;;;;;;;14.13;80.08;99136.09;5040804;28;20499;-51
2022/10/26 00:52:58;;;;;;;5.38;1.83;;;;;;;14.13;79.93;99136.09;5041156;28;20041;-52
2022/10/26 00:55:29;;;;;;;9.07;1.67;;;;;;;14.09;80.18;99139.66;5043014;28;20492;-52
2022/10/26 00:57:56;;;;;;;4.60;1.10;;;;;;;14.11;80.55;99145.69;5048019;28;20455;-51
2022/10/26 01:00:23;;;;;;;7.65;2.08;;;;;;;14.11;80.82;99140.47;5042866;28;20292;-49
2022/10/26 01:02:51;;;;;;;5.60;1.95;;;;;;;14.09;80.36;99129.25;5040232;28;20572;-54
2022/10/26 01:05:18;;;;;;;3.00;1.23;;;;;;;14.09;80.44;99139.66;5055955;28;20119;-53
2022/10/26 01:07:46;;;;;;;4.82;1.40;;;;;;;14.05;81.02;99130.25;5058211;28;20087;-55
2022/10/26 01:10:14;;;;;;;7.13;1.25;;;;;;;14.09;80.81;99118.84;5046344;28;20044;-54
2022/10/26 01:12:41;;;;;;;5.07;1.83;;;;;;;14.00;81.45;99125.22;5042566;28;20041;-53
2022/10/26 01:15:08;;;;;;;2.13;1.08;;;;;;;14.04;81.21;99120.75;5041738;28;20073;-49
2022/10/26 01:20:38;;;;;;;2.90;1.60;;;;;;;14.08;80.69;99132.78;5083038;27;20394;-55
2022/10/26 01:23:32;;;;;;;4.75;1.05;;;;;;;14.07;80.95;99120.66;5074362;28;20123;-51
2022/10/26 01:31:32;;;;;;;7.63;1.73;;;;;;;14.20;80.79;99121.13;5050667;28;20441;-52
2022/10/26 01:34:07;;;;;;;6.50;1.25;;;;;;;14.20;80.77;99117.66;5017844;28;20037;-53
2022/10/26 01:36:47;;;;;;;8.10;1.65;;;;;;;14.23;80.56;99110.59;5020025;28;20049;-53
2022/10/26 01:39:20;;;;;;;4.60;1.13;;;;;;;14.23;80.90;99104.53;5020576;28;20477;-53
2022/10/26 01:41:49;;;;;;;4.95;1.40;;;;;;;14.22;80.75;99098.47;5016988;28;20170;-52
2022/10/26 01:44:23;;;;;;;8.43;1.77;;;;;;;14.27;81.04;99101.78;5015506;28;20567;-54
2022/10/26 01:46:53;;;;;;;4.82;1.65;;;;;;;14.26;81.19;99099.22;5020003;28;20575;-50
2022/10/26 01:49:21;;;;;;;;;;;;;;;14.21;81.27;99101.97;5014935;28;20059;-52
2022/10/26 01:51:49;;;;;;;7.55;1.88;;;;;;;14.32;81.05;99104.22;5019831;28;19935;-55
2022/10/26 01:54:16;;;;;;;6.65;1.65;;;;;;;14.36;80.76;99105.81;5016664;28;20045;-49
2022/10/26 01:56:47;;;;;;;6.78;1.80;;;;;;;14.45;80.38;99093.41;5019769;28;20037;-51
2022/10/26 02:13:30;;;;;;;11.32;3.13;;;;;;;14.63;80.81;99060.66;5053563;27;20926;-54
2022/10/26 02:21:39;;;;;;;3.75;1.15;;;;;;;14.69;80.89;99054.38;5054145;28;20434;-52
2022/10/26 02:24:09;;;;;;;6.65;1.85;;;;;;;14.70;80.85;99050.84;5011866;27;20069;-50
2022/10/26 02:26:39;;;;;;;5.30;1.10;;;;;;;14.70;80.67;99045.63;5009150;28;20148;-52
2022/10/26 02:29:10;;;;;;;4.10;1.20;;;;;;;14.70;80.61;99038.66;5008135;28;20065;-54
2022/10/26 02:31:39;;;;;;;3.65;0.80;;;;;;;14.75;80.56;99039.34;4986815;28;20129;-53
2022/10/26 02:34:10;;;;;;;7.70;1.65;;;;;;;14.78;80.74;99027.97;5004123;28;20470;-56
2022/10/26 02:36:42;;;;;;;7.07;1.75;;;;;;;14.75;80.52;99015.03;5005248;28;20050;-55
2022/10/26 02:39:12;;;;;;;6.85;1.98;;;;;;;14.77;80.92;99011.47;4999173;28;20077;-51
2022/10/26 02:41:40;;;;;;;5.78;1.50;;;;;;;14.80;80.04;99010.53;5000218;28;20078;-55
2022/10/26 02:44:16;;;;;;;11.60;2.20;;;;;;;14.75;80.73;99002.00;5011074;28;20081;-54
2022/10/26 02:46:43;;;;;;;4.90;1.63;;;;;;;14.79;80.22;99008.81;5002268;28;20469;-54
2022/10/26 02:49:10;;;;;;;3.15;0.82;;;;;;;14.77;80.59;99015.88;4999255;28;20051;-51
2022/10/26 02:52:02;;;;;;;9.85;1.52;;;;;;;14.75;80.42;99008.06;5003958;28;20054;-54
2022/10/26 02:57:13;;;;;;;8.65;1.67;;;;;;;14.78;80.56;99012.34;5021934;27;20410;-51
2022/10/26 02:59:46;;;;;;;6.85;1.10;;;;;;;14.81;80.63;99006.16;5009953;28;20050;-51
2022/10/26 03:02:16;;;;;;;10.35;2.80;;;;;;;14.78;80.59;99004.53;5002238;28;20401;-51
2022/10/26 03:04:43;;;;;;;6.78;1.80;;;;;;;14.83;80.18;99010.41;5000019;28;20065;-54
2022/10/26 03:07:10;;;;;;;7.80;1.60;;;;;;;14.87;79.90;99006.81;5008985;28;20081;-53
2022/10/26 03:09:36;;;;;;;6.72;1.88;;;;;;;14.86;80.58;99005.09;5010022;28;20089;-48
2022/10/26 03:12:03;;;;;;;6.40;1.33;;;;;;;14.80;80.83;98992.31;5006336;28;20050;-50
2022/10/26 03:14:29;;;;;;;4.53;1.10;;;;;;;14.80;80.63;99002.72;5005888;28;20060;-53
2022/10/26 03:16:56;;;;;;;6.63;1.58;;;;;;;14.82;80.58;99008.72;5003792;28;20141;-55
2022/10/26 03:19:23;;;;;;;7.82;2.30;;;;;;;14.79;80.72;99003.59;5004009;28;21279;-52
2022/10/26 03:21:49;;;;;;;10.18;2.13;;;;;;;14.85;79.98;99012.97;5003621;28;20129;-53
2022/10/26 03:24:16;;;;;;;7.10;1.08;;;;;;;14.84;80.42;99006.06;5005247;28;20057;-54
2022/10/26 03:26:42;;;;;;;6.25;1.85;;;;;;;14.85;80.12;98997.31;5008471;28;20108;-49
2022/10/26 03:29:09;;;;;;;11.60;1.33;;;;;;;14.80;80.25;99005.34;5004481;28;20517;-53
2022/10/26 03:31:36;;;;;;;8.07;1.92;;;;;;;14.83;80.52;98997.38;5000621;28;20048;-52
2022/10/26 03:34:02;;;;;;;7.25;1.50;;;;;;;14.85;80.43;99002.53;4999838;28;20085;-53
2022/10/26 03:36:29;;;;;;;8.73;2.15;;;;;;;14.85;80.02;99002.53;4997951;28;20042;-52
2022/10/26 03:38:55;;;;;;;7.25;2.13;;;;;;;14.87;80.72;99006.81;4999553;28;20119;-50
2022/10/26 03:41:22;;;;;;;5.82;1.40;;;;;;;14.90;80.54;99006.66;5000083;28;20042;-55
2022/10/26 03:43:48;;;;;;;10.60;1.60;;;;;;;14.92;80.67;99013.59;4998033;28;20167;-52
2022/10/26 03:46:15;;;;;;;11.20;1.58;;;;;;;14.99;79.96;99015.06;4999676;28;20129;-49
2022/10/26 03:48:42;;;;;;;11.90;1.70;;;;;;;14.99;80.26;99017.66;4999698;28;20172;-49
2022/10/26 03:51:08;;;;;;;7.20;2.08;;;;;;;15.03;80.17;99016.66;5001133;28;20524;-52
2022/10/26 03:53:35;;;;;;;8.23;2.17;;;;;;;15.03;80.82;99014.06;5002295;28;20121;-52
2022/10/26 03:56:02;;;;;;;5.65;1.90;;;;;;;15.06;80.70;99021.72;5002586;28;20052;-55
2022/10/26 03:58:28;;;;;;;7.97;1.92;;;;;;;15.07;80.17;99015.63;4997375;28;20070;-53
2022/10/26 04:00:55;;;;;;;9.57;2.22;;;;;;;15.08;80.22;99013.84;4998240;28;20085;-52
2022/10/26 04:03:21;;;;;;;11.25;2.97;;;;;;;15.10;80.01;99012.88;5000230;28;20046;-52
2022/10/26 04:05:48;;;;;;;10.85;2.38;;;;;;;15.11;80.38;99018.97;5002930;28;20050;-51
2022/10/26 04:08:14;;;;;;;8.90;2.08;;;;;;;15.11;80.05;99009.41;4990072;28;20046;-50
2022/10/26 04:10:41;;;;;;;4.97;2.58;;;;;;;15.08;80.63;99009.50;4985301;28;20069;-52
2022/10/26 04:13:10;;;;;;;7.97;2.05;;;;;;;15.12;80.63;99011.09;4983394;28;20050;-51
2022/10/26 04:15:37;;;;;;;7.35;2.45;;;;;;;15.19;80.44;99016.91;5010590;28;20080;-55
2022/10/26 04:18:04;;;;;;;12.80;2.00;;;;;;;15.20;80.03;99018.59;5017386;28;20077;-48
2022/10/26 04:20:32;;;;;;;10.30;1.98;;;;;;;15.15;80.73;99018.78;4988821;28;20125;-52
2022/10/26 04:23:00;;;;;;;8.85;2.22;;;;;;;15.18;80.61;99022.19;4986178;28;20217;-51
2022/10/26 04:25:28;;;;;;;10.73;1.90;;;;;;;15.15;80.50;99026.63;4989872;28;20186;-55
2022/10/26 04:27:59;;;;;;;7.10;1.88;;;;;;;15.15;80.96;99026.63;4988909;28;20058;-50
2022/10/26 04:30:26;;;;;;;8.80;2.60;;;;;;;15.11;81.31;99027.66;4987704;28;21892;-49
2022/10/26 04:32:53;;;;;;;8.10;2.45;;;;;;;15.19;81.34;99026.50;4982491;28;20140;-49
2022/10/26 04:35:19;;;;;;;8.32;2.58;;;;;;;15.18;81.00;99020.44;4985611;28;20081;-52
2022/10/26 04:37:46;;;;;;;5.05;1.88;;;;;;;15.15;81.40;99024.00;4983899;28;20056;-47
2022/10/26 04:40:13;;;;;;;7.30;2.10;;;;;;;15.23;80.75;99020.25;4988375;28;20052;-55
2022/10/26 04:42:42;;;;;;;14.18;3.03;;;;;;;15.23;81.59;99028.91;4983157;28;20050;-53
2022/10/26 04:45:09;;;;;;;10.43;2.47;;;;;;;15.27;81.04;99025.28;4983202;28;20163;-54
2022/10/26 04:47:36;;;;;;;4.80;2.95;;;;;;;15.32;80.64;99032.94;4985057;28;20125;-52
2022/10/26 04:50:03;;;;;;;7.80;2.22;;;;;;;15.34;80.41;99020.69;4984243;28;20138;-51
2022/10/26 04:52:30;;;;;;;3.65;1.75;;;;;;;15.29;80.92;99022.63;4986735;28;20042;-53
2022/10/26 04:54:56;;;;;;;8.45;2.40;;;;;;;15.26;80.83;99015.75;4989018;28;20120;-53
2022/10/26 04:57:23;;;;;;;3.85;2.10;;;;;;;15.26;80.71;99020.13;4987787;28;20085;-53
2022/10/26 04:59:50;;;;;;;5.57;1.95;;;;;;;15.28;80.50;99018.31;4988822;28;20050;-52
2022/10/26 05:02:16;;;;;;;7.47;2.33;;;;;;;15.22;80.39;99022.00;4984775;28;20121;-55
2022/10/26 05:04:43;;;;;;;8.68;2.00;;;;;;;15.19;80.21;99031.72;4986351;28;20065;-56
2022/10/26 05:07:09;;;;;;;6.10;2.88;;;;;;;15.17;80.24;99037.00;4982302;28;20042;-54
2022/10/26 05:09:36;;;;;;;6.80;2.28;;;;;;;15.13;80.27;99036.25;4988319;28;20501;-54
2022/10/26 05:12:03;;;;;;;8.38;2.35;;;;;;;15.13;79.90;99036.25;4982534;28;20150;-49
2022/10/26 05:14:29;;;;;;;8.18;2.50;;;;;;;15.09;80.53;99039.88;4986120;28;20054;-51
2022/10/26 05:16:56;;;;;;;7.47;2.35;;;;;;;15.04;80.39;99034.81;4986630;28;20137;-51
2022/10/26 05:19:23;;;;;;;4.95;1.63;;;;;;;15.04;80.29;99040.03;4987160;28;20068;-53
2022/10/26 05:21:52;;;;;;;9.75;1.85;;;;;;;15.01;80.86;99039.31;4984839;28;20440;-55
2022/10/26 05:24:19;;;;;;;8.75;1.85;;;;;;;14.93;80.09;99039.59;4983709;28;20125;-52
2022/10/26 05:26:45;;;;;;;7.03;2.20;;;;;;;14.92;80.03;99047.50;4988245;28;20092;-53
2022/10/26 05:29:12;;;;;;;6.13;2.30;;;;;;;14.90;79.92;99048.38;4986148;28;20733;-51
2022/10/26 05:31:38;;;;;;;6.13;1.50;;;;;;;14.91;79.95;99054.47;4986385;28;20450;-53
2022/10/26 05:34:05;;;;;;;7.85;1.70;;;;;;;14.90;79.84;99064.03;4989272;28;20141;-50
2022/10/26 05:36:31;;;;;;;7.20;1.70;;;;;;;14.88;80.30;99071.06;4988505;28;20078;-55
2022/10/26 05:38:58;;;;;;;7.43;1.65;;;;;;;14.88;80.26;99071.06;4985045;28;20602;-57
2022/10/26 05:41:25;;;;;;;14.32;1.70;;;;;;;14.96;80.12;99067.34;4984504;28;20076;-57
2022/10/26 05:43:51;;;;;;;5.78;1.58;;;;;;;14.95;80.70;99057.78;4987606;28;20050;-56
2022/10/26 05:46:18;;;;;;;5.68;1.55;;;;;;;14.97;80.12;99071.63;4986815;28;20074;-51
2022/10/26 05:48:44;;;;;;;6.88;1.63;;;;;;;15.00;80.42;99079.34;4987041;28;20097;-54
2022/10/26 05:51:11;;;;;;;2.97;1.60;;;;;;;15.01;79.66;99086.25;4987123;28;20053;-54
2022/10/26 05:53:38;;;;;;;4.65;1.23;;;;;;;15.02;79.79;99091.41;4982404;28;20132;-52
2022/10/26 05:56:33;;;;;;;5.95;1.90;;;;;;;15.02;79.94;99096.63;4988293;28;20506;-54
2022/10/26 05:59:00;;;;;;;7.78;1.85;;;;;;;15.11;80.02;99103.28;4973185;28;20145;-54
2022/10/26 06:06:53;;;;;;;7.88;3.05;;;;;;;15.08;79.29;99103.38;5059255;28;20410;-53
2022/10/26 06:09:20;;;;;;;8.52;2.65;;;;;;;15.05;79.43;99100.88;5018286;28;20140;-52
2022/10/26 06:11:47;;;;;;;5.35;2.25;;;;;;;15.01;79.25;99101.91;5019908;28;20050;-51
2022/10/26 06:14:19;;;;;;;3.97;2.50;;;;;;;14.95;79.27;99099.50;5017859;28;20037;-50
2022/10/26 06:25:34;;;;;;;5.95;2.95;;;;;;;14.86;78.26;99130.22;5045052;28;20387;-53
2022/10/26 06:28:41;;;;;;;7.18;2.50;;;;;;;14.85;78.15;99132.88;5007770;28;20042;-54
2022/10/26 06:31:13;;;;;;;6.32;2.35;;;;;;;14.89;77.88;99130.13;4989580;28;20409;-56
2022/10/26 06:33:40;;;;;;;4.35;2.40;;;;;;;14.92;77.81;99123.09;4999783;28;20464;-50
2022/10/26 06:38:55;;;;;;;3.28;1.15;;;;;;;14.86;77.35;99125.00;5014388;27;20750;-55
2022/10/26 06:41:23;;;;;;;3.38;0.70;;;;;;;14.84;76.96;99113.78;4992983;28;20062;-49
2022/10/26 06:43:51;;;;;;;4.95;0.68;;;;;;;14.83;77.24;99122.50;5010772;28;20068;-55
2022/10/26 06:57:22;;;;;;;5.00;1.42;;;;;;;14.63;77.14;99113.59;5012143;27;20416;-51
2022/10/26 07:02:26;;;;;;;4.78;1.63;;;;;;;14.61;77.23;99131.06;5016272;28;20414;-48
2022/10/26 07:04:53;;;;;;;7.40;2.42;;;;;;;14.62;76.89;99137.97;4995700;28;20048;-54
2022/10/26 07:07:23;;;;;;;5.60;1.83;;;;;;;14.59;77.52;99127.63;4994780;28;20077;-53
2022/10/26 07:09:50;;;;;;;;;;;;;;;14.52;77.88;99136.56;4996125;28;20104;-53
2022/10/26 07:12:16;;;;;;;6.38;1.40;;;;;;;14.60;77.41;99145.00;4989971;28;19926;-54
2022/10/26 07:14:43;;;;;;;12.75;2.03;;;;;;;14.66;77.57;99154.34;4991732;28;20129;-52
2022/10/26 07:17:10;;;;;;;6.22;1.58;;;;;;;14.72;77.65;99151.53;4993959;28;20150;-50
2022/10/26 07:19:39;;;;;;;7.13;2.00;;;;;;;14.73;77.69;99144.56;4990715;28;20057;-50
2022/10/26 07:22:05;;;;;;;8.35;2.38;;;;;;;14.74;77.48;99151.47;4991881;28;20529;-54
2022/10/26 07:24:32;;;;;;;2.72;0.70;;;;;;;14.78;77.68;99147.88;4995062;28;20470;-53
2022/10/26 07:26:59;;;;;;;4.88;1.67;;;;;;;14.79;77.89;99149.59;4992893;28;20056;-50
2022/10/26 07:29:27;;;;;;;4.82;2.55;;;;;;;14.78;77.67;99142.69;4991641;28;20145;-53
2022/10/26 07:31:53;;;;;;;7.50;1.90;;;;;;;14.78;78.07;99142.69;4992990;28;20129;-51
2022/10/26 07:34:25;;;;;;;10.65;2.17;;;;;;;14.77;78.15;99140.97;4994736;28;20057;-52
2022/10/26 07:36:51;;;;;;;4.40;1.75;;;;;;;14.79;78.07;99149.59;4994217;28;20553;-49
2022/10/26 07:39:18;;;;;;;9.82;2.00;;;;;;;14.75;78.11;99159.25;5001785;28;20508;-55
2022/10/26 07:41:45;;;;;;;6.65;1.80;;;;;;;14.78;78.42;99153.97;5003045;28;20048;-52
2022/10/26 07:44:12;;;;;;;6.55;2.00;;;;;;;14.83;78.13;99155.56;5001252;28;20129;-49
2022/10/26 07:46:38;;;;;;;8.10;2.05;;;;;;;14.84;77.99;99155.50;5001278;28;20141;-53
2022/10/26 07:49:05;;;;;;;3.05;2.03;;;;;;;14.91;78.31;99143.09;4995786;28;20050;-53
2022/10/26 07:51:32;;;;;;;7.55;2.33;;;;;;;15.03;77.84;99157.47;5000172;28;20133;-49
2022/10/26 07:53:58;;;;;;;5.72;3.05;;;;;;;15.07;77.62;99164.28;4999135;28;20054;-50
2022/10/26 07:56:25;;;;;;;6.72;2.22;;;;;;;15.12;77.20;99162.34;5003819;28;20108;-51
2022/10/26 07:58:52;;;;;;;6.00;2.10;;;;;;;15.22;77.68;99162.00;4996593;28;20074;-54
2022/10/26 08:01:19;;;;;;;6.55;1.98;;;;;;;15.28;77.36;99167.00;4990198;28;20054;-52
2022/10/26 08:03:46;;;;;;;1.88;1.55;;;;;;;15.30;77.14;99165.19;4992131;28;20054;-57
2022/10/26 08:06:13;;;;;;;7.20;2.60;;;;;;;15.31;77.49;99182.56;4998587;28;20042;-49
2022/10/26 08:08:39;;;;;;;4.60;2.22;;;;;;;15.31;77.49;99179.94;4994564;28;20145;-54
2022/10/26 08:11:13;;;;;;;6.88;2.35;;;;;;;15.29;77.62;99181.75;5000324;28;20126;-53
2022/10/26 08:13:40;;;;;;;5.35;1.45;;;;;;;15.30;77.20;99180.81;4989375;28;20136;-52
2022/10/26 08:16:07;;;;;;;7.20;1.00;;;;;;;15.37;77.41;99181.47;4983619;28;20602;-51
2022/10/26 08:18:33;;;;;;;5.40;1.75;;;;;;;15.39;77.49;99179.66;4985166;28;20053;-50
2022/10/26 08:21:03;;;;;;;8.63;2.15;;;;;;;15.47;77.58;99176.78;4985683;28;20048;-53
2022/10/26 08:23:38;;;;;;;7.55;1.90;;;;;;;15.48;77.10;99173.25;4980805;28;20164;-56
2022/10/26 08:26:04;;;;;;;3.88;1.90;;;;;;;15.51;77.71;99173.97;4982573;28;20126;-51
2022/10/26 08:28:31;;;;;;;5.90;2.53;;;;;;;15.51;77.54;99167.91;4981499;28;20076;-49
2022/10/26 08:30:58;;;;;;;5.45;1.95;;;;;;;15.50;78.06;99163.63;4985705;28;20122;-53
2022/10/26 08:33:25;;;;;;;3.63;1.73;;;;;;;15.56;78.10;99171.19;4979865;28;20122;-54
2022/10/26 08:35:56;;;;;;;7.05;2.17;;;;;;;15.58;77.48;99169.41;4984121;28;20209;-54
2022/10/26 08:38:23;;;;;;;4.70;2.40;;;;;;;15.63;77.41;99177.88;4979486;28;20064;-51
2022/10/26 08:40:51;;;;;;;5.53;1.65;;;;;;;15.65;78.28;99176.09;4982472;28;20053;-54
2022/10/26 08:43:25;;;;;;;3.92;1.88;;;;;;;15.64;78.01;99183.97;4979756;28;20243;-50
2022/10/26 08:48:33;;;;;;;3.47;0.90;;;;;;;15.76;77.94;99193.09;5119583;27;20422;-55
2022/10/26 08:51:07;;;;;;;4.68;0.80;;;;;;;15.76;77.98;99203.53;5058495;27;20558;-53
2022/10/26 08:53:43;;;;;;;2.95;0.80;;;;;;;15.69;78.42;99213.34;5054309;28;20575;-51
2022/10/26 08:58:50;;;;;;;7.47;1.10;;;;;;;15.78;78.59;99222.59;5048937;28;20712;-52
2022/10/26 09:01:17;;;;;;;7.03;1.08;;;;;;;15.78;78.50;99222.59;5020797;28;20545;-53
2022/10/26 09:03:44;;;;;;;5.75;1.20;;;;;;;15.80;79.08;99226.00;5017617;28;20695;-48
2022/10/26 09:14:22;;;;;;;5.15;1.52;;;;;;;16.57;77.70;99244.84;5030351;27;20424;-57
2022/10/26 09:17:02;;;;;;;11.30;3.47;;;;;;;16.64;77.79;99241.06;4989738;28;20532;-52
2022/10/26 09:24:54;;;;;;;12.25;1.50;;;;;;;17.15;76.34;99245.09;5041811;28;20401;-53
2022/10/26 09:27:32;;;;;;;5.72;0.85;;;;;;;17.95;75.91;99251.19;5023726;28;20493;-48
2022/10/26 09:30:03;;;;;;;4.90;0.80;;;;;;;18.96;75.29;99266.53;5018959;28;20046;-55
2022/10/26 09:35:24;;;;;;;6.03;1.17;;;;;;;20.42;70.93;99263.31;5069552;27;20397;-51
2022/10/26 09:37:55;;;;;;;7.78;1.20;;;;;;;20.93;68.92;99266.59;5052962;28;20584;-53
2022/10/26 09:45:51;;;;;;;7.20;0.70;;;;;;;20.44;65.54;99281.63;5077727;27;20370;-56
2022/10/26 09:48:42;;;;;;;4.30;0.90;;;;;;;19.88;65.60;99284.63;5022664;28;20045;-57
2022/10/26 09:51:10;;;;;;;6.88;0.75;;;;;;;19.55;66.69;99277.63;5020090;28;20092;-49
2022/10/26 09:53:36;;;;;;;7.55;1.27;;;;;;;19.35;67.75;99292.63;5020219;28;20083;-56
2022/10/26 09:56:06;;;;;;;4.00;0.90;;;;;;;19.78;68.56;99285.13;5019630;28;20456;-51
2022/10/26 09:58:43;;;;;;;4.25;1.02;;;;;;;20.66;67.49;99290.91;5019319;28;20042;-53
2022/10/26 10:01:32;;;;;;;4.07;0.90;;;;;;;21.08;66.31;99295.59;5020827;28;20592;-54
2022/10/26 10:07:12;;;;;;;4.18;0.77;;;;;;;21.63;64.67;99301.13;5102223;27;20407;-55
2022/10/26 10:09:39;;;;;;;4.07;0.98;;;;;;;21.48;63.16;99309.00;5068327;28;20131;-51
2022/10/26 10:12:17;;;;;;;4.68;0.60;;;;;;;21.28;62.85;99312.84;5064334;28;20086;-50
2022/10/26 10:14:55;;;;;;;5.75;1.27;;;;;;;21.53;62.78;99330.69;5068121;28;20531;-52
2022/10/26 10:17:23;;;;;;;2.53;0.52;;;;;;;21.48;62.61;99318.72;5059251;28;20106;-54
2022/10/26 10:19:50;;;;;;;4.68;0.90;;;;;;;21.35;62.16;99318.59;5068388;28;20471;-50
2022/10/26 10:22:21;;;;;;;5.10;0.70;;;;;;;21.47;62.47;99333.66;5076014;28;20040;-50
2022/10/26 10:24:57;;;;;;;8.88;1.05;;;;;;;21.89;61.68;99338.25;5070627;28;20135;-55
2022/10/26 10:27:25;;;;;;;4.63;0.80;;;;;;;22.15;61.21;99333.16;5060688;28;20128;-54
2022/10/26 10:29:55;;;;;;;2.78;0.93;;;;;;;22.32;59.94;99342.59;5066819;28;20168;-53
2022/10/26 10:32:31;;;;;;;6.60;1.25;;;;;;;22.38;59.73;99344.88;5071915;28;20088;-51
2022/10/26 10:35:22;;;;;;;5.90;0.70;;;;;;;22.26;59.61;99353.56;5068060;28;20044;-50
2022/10/26 10:37:50;;;;;;;3.25;1.20;;;;;;;22.00;59.40;99351.63;5065330;28;20052;-56
2022/10/26 10:43:13;;;;;;;6.35;2.70;;;;;;;21.67;59.03;99350.06;5063783;28;20390;-48
2022/10/26 10:45:45;;;;;;;4.72;1.75;;;;;;;21.59;59.83;99363.72;5038047;28;20148;-50
2022/10/26 10:50:58;;;;;;;2.88;0.50;;;;;;;21.38;59.20;99371.09;5040089;27;20410;-50
2022/10/26 10:53:52;;;;;;;3.40;0.65;;;;;;;21.23;58.21;99376.31;5029621;28;20042;-53
2022/10/26 10:59:07;;;;;;;3.85;1.05;;;;;;;20.95;59.19;99383.19;5086663;27;20396;-55
2022/10/26 11:01:40;;;;;;;3.97;0.70;;;;;;;20.90;59.02;99387.84;5034681;28;20041;-52
2022/10/26 11:06:56;;;;;;;8.95;0.52;;;;;;;20.76;59.92;99386.81;5051734;28;20401;-50
2022/10/26 11:09:27;;;;;;;4.32;0.40;;;;;;;20.69;59.24;99406.50;4986256;28;20138;-52
2022/10/26 11:12:01;;;;;;;2.92;0.75;;;;;;;20.62;58.97;99410.41;5027453;28;20129;-49
2022/10/26 11:14:37;;;;;;;5.78;0.65;;;;;;;20.59;59.04;99415.81;5017933;28;20045;-49
2022/10/26 11:17:15;;;;;;;2.47;0.80;;;;;;;20.49;58.60;99416.34;5001939;28;20049;-46
2022/10/26 11:20:05;;;;;;;4.22;0.98;;;;;;;20.33;58.71;99433.88;5002539;28;20295;-51
2022/10/26 11:22:44;;;;;;;8.93;1.40;;;;;;;20.25;58.13;99434.28;5031633;28;20049;-50
2022/10/26 11:25:17;;;;;;;5.25;0.82;;;;;;;20.15;58.83;99436.53;5014183;28;20069;-55
2022/10/26 11:27:49;;;;;;;5.30;1.95;;;;;;;20.08;59.36;99432.53;5003380;28;20624;-55
2022/10/26 11:30:20;;;;;;;5.28;0.40;;;;;;;20.07;59.44;99441.38;5003097;28;20571;-55
2022/10/26 11:33:10;;;;;;;4.53;0.70;;;;;;;20.00;59.32;99440.84;5000541;28;20076;-53
2022/10/26 11:38:48;;;;;;;4.72;0.63;;;;;;;20.04;59.53;99445.84;5033823;27;20415;-54
2022/10/26 11:41:36;;;;;;;3.92;0.63;;;;;;;20.14;59.67;99437.50;5013328;28;20049;-50
2022/10/26 11:46:44;;;;;;;7.30;2.38;;;;;;;20.17;58.50;99440.78;5066938;28;20397;-50
2022/10/26 11:52:18;;;;;;;2.67;0.70;;;;;;;20.03;58.31;99461.72;5062210;28;20406;-51
2022/10/26 11:57:24;;;;;;;6.85;1.05;;;;;;;19.96;57.87;99455.03;5025635;27;20418;-50
2022/10/26 11:59:56;;;;;;;4.90;0.80;;;;;;;19.85;57.80;99466.06;5016839;28;20184;-49
2022/10/26 12:02:24;;;;;;;6.35;1.17;;;;;;;19.73;57.71;99465.78;5016454;28;20517;-56
2022/10/26 12:04:56;;;;;;;4.80;1.33;;;;;;;19.65;57.85;99467.94;5017195;28;20045;-53
2022/10/26 12:07:28;;;;;;;3.05;0.82;;;;;;;19.63;58.26;99468.00;5017408;28;20526;-51
2022/10/26 12:09:56;;;;;;;5.78;1.35;;;;;;;19.67;58.21;99460.84;5024313;28;20099;-49
2022/10/26 12:15:29;;;;;;;9.05;2.58;;;;;;;19.66;56.43;99474.91;5020790;28;20406;-56
2022/10/26 12:18:32;;;;;;;5.05;1.98;;;;;;;19.67;56.86;99478.38;5005760;28;20045;-51
2022/10/26 12:21:19;;;;;;;8.38;3.95;;;;;;;19.69;57.06;99485.25;5009892;28;20490;-51
2022/10/26 12:29:24;;;;;;;6.90;1.13;;;;;;;19.71;56.44;99493.06;4989118;28;20415;-53
2022/10/26 12:31:51;;;;;;;4.30;0.90;;;;;;;19.70;56.84;99504.50;4935097;28;20604;-57
2022/10/26 12:37:31;;;;;;;4.03;1.23;;;;;;;19.52;56.62;99510.56;5044647;27;20397;-49
2022/10/26 12:40:38;;;;;;;8.07;1.13;;;;;;;19.51;56.75;99518.53;4994085;28;20043;-56
2022/10/26 12:48:49;;;;;;;7.03;2.25;;;;;;;19.45;56.57;99535.44;5005665;28;20412;-54
2022/10/26 12:54:24;;;;;;;7.97;0.63;;;;;;;19.43;56.92;99553.06;5024226;28;20909;-54
2022/10/26 12:56:59;;;;;;;4.18;0.80;;;;;;;19.60;57.08;99554.00;5015737;28;20049;-53
2022/10/26 13:08:10;;;;;;;6.28;0.82;;;;;;;19.73;55.16;99560.34;5039491;27;20399;-54
2022/10/26 13:10:44;;;;;;;4.07;1.05;;;;;;;19.70;55.65;99560.53;5014583;28;20103;-56
2022/10/26 13:13:22;;;;;;;6.50;1.00;;;;;;;19.67;55.91;99560.66;5020969;28;20133;-52
2022/10/26 13:15:55;;;;;;;5.32;1.17;;;;;;;19.67;56.25;99570.31;5021348;28;20041;-55
2022/10/26 13:18:22;;;;;;;8.05;1.05;;;;;;;19.64;56.32;99556.41;5021406;28;20152;-51
2022/10/26 13:21:01;;;;;;;7.82;1.20;;;;;;;19.60;56.42;99564.50;5018512;28;20053;-55
2022/10/26 13:23:32;;;;;;;7.13;1.35;;;;;;;19.53;55.86;99577.09;5021655;28;20478;-54
2022/10/26 13:26:17;;;;;;;8.13;0.80;;;;;;;19.36;55.52;99568.22;5032245;28;21378;-51
2022/10/26 13:39:33;;;;;;;7.70;1.85;;;;;;;19.14;57.65;99574.50;5058836;27;20419;-54
2022/10/26 13:42:01;;;;;;;6.35;2.33;;;;;;;19.13;57.79;99571.94;5052904;28;20052;-53
2022/10/26 13:44:51;;;;;;;10.75;2.33;;;;;;;19.08;57.78;99573.94;5082975;28;20152;-51
2022/10/26 13:58:15;;;;;;;8.23;1.30;;;;;;;19.11;57.43;99577.25;5058900;28;20391;-47
2022/10/26 14:01:03;;;;;;;10.70;1.35;;;;;;;18.98;57.62;99587.41;5002596;28;20052;-52
2022/10/26 14:03:30;;;;;;;9.27;1.48;;;;;;;18.99;58.13;99581.25;5017192;28;20082;-44
2022/10/26 14:05:57;;;;;;;9.63;1.40;;;;;;;18.95;58.23;99579.69;5005073;28;20141;-46
2022/10/26 14:08:24;;;;;;;10.73;2.13;;;;;;;18.93;58.34;99581.53;5005624;28;20050;-47
2022/10/26 14:10:55;;;;;;;7.53;1.02;;;;;;;18.84;58.61;99576.69;5000040;28;20902;-48
2022/10/26 14:13:25;;;;;;;9.63;1.55;;;;;;;18.83;58.86;99591.59;5004504;28;20137;-47
2022/10/26 14:15:54;;;;;;;9.55;1.05;;;;;;;18.79;58.58;99583.94;5004329;28;20073;-47
2022/10/26 14:18:30;;;;;;;5.95;0.77;;;;;;;18.72;58.49;99584.22;4991841;28;20730;-48
2022/10/26 14:26:18;;;;;;;9.65;3.10;;;;;;;18.61;57.92;99591.69;5043724;28;20409;-50
2022/10/26 14:28:49;;;;;;;10.20;2.78;;;;;;;18.59;58.02;99594.38;5019248;28;20096;-46
2022/10/26 14:31:37;;;;;;;8.65;2.38;;;;;;;18.54;58.36;99598.13;5020710;28;20084;-44
2022/10/26 14:34:04;;;;;;;11.23;3.08;;;;;;;18.45;58.66;99602.84;5021779;28;20042;-48
2022/10/26 14:36:37;;;;;;;9.20;3.05;;;;;;;18.37;58.04;99608.41;5022210;28;20071;-48
2022/10/26 14:39:13;;;;;;;10.98;2.80;;;;;;;18.32;58.83;99606.91;5020460;28;20077;-47